Time;durP1;ratioP1;P1;durP2;ratioP2;P2;SDS_P1;SDS_P2;PMS_P1;PMS_P2;Temp;Humidity;BMP_temperature;BMP_pressure;BME280_temperature;BME280_humidity;BME280_pressure;Samples;Min_cycle;Max_cycle;Signal;HPM_P1;HPM_P2
2021/12/11 00:00:45;;;;;;;28.42;14.73;;;-1.70;99.90;;;;;;4944666;28;20046;-84
2021/12/11 00:03:17;;;;;;;36.40;16.77;;;-1.70;99.90;;;;;;4927099;28;20109;-84
2021/12/11 00:05:49;;;;;;;30.38;15.55;;;-1.70;99.90;;;;;;4932621;28;20038;-84
2021/12/11 00:08:18;;;;;;;37.65;16.77;;;-1.70;99.90;;;;;;4946052;28;20035;-83
2021/12/11 00:10:54;;;;;;;30.08;15.75;;;-1.60;99.90;;;;;;4943932;28;20110;-83
2021/12/11 00:13:26;;;;;;;34.38;16.15;;;-1.60;99.90;;;;;;4969480;28;20047;-84
2021/12/11 00:15:56;;;;;;;32.60;15.80;;;-1.70;99.90;;;;;;4948529;28;20340;-85
2021/12/11 00:18:27;;;;;;;35.28;17.00;;;-1.70;99.90;;;;;;4946720;28;20055;-84
2021/12/11 00:21:07;;;;;;;38.47;18.17;;;-1.70;99.90;;;;;;4929226;28;20039;-84
2021/12/11 00:23:36;;;;;;;39.25;17.52;;;-1.60;99.90;;;;;;4944570;28;20063;-84
2021/12/11 00:26:05;;;;;;;36.95;18.02;;;-1.60;99.90;;;;;;4924107;28;20102;-84
2021/12/11 00:28:31;;;;;;;29.92;16.10;;;-1.60;99.90;;;;;;4945684;28;20045;-84
2021/12/11 00:30:57;;;;;;;35.92;16.83;;;-1.60;99.90;;;;;;4928515;28;20047;-84
2021/12/11 00:33:34;;;;;;;36.67;16.23;;;-1.70;99.90;;;;;;4928935;28;20035;-84
2021/12/11 00:36:13;;;;;;;35.42;16.10;;;-1.70;99.90;;;;;;4942898;28;20047;-84
2021/12/11 00:38:40;;;;;;;36.05;16.75;;;-1.70;99.90;;;;;;4937666;28;20050;-84
2021/12/11 00:41:11;;;;;;;34.80;17.00;;;-1.70;99.90;;;;;;4924613;28;20892;-85
2021/12/11 00:43:40;;;;;;;37.65;17.60;;;-1.80;99.90;;;;;;4924426;28;20410;-84
2021/12/11 00:46:13;;;;;;;30.92;16.30;;;-1.80;99.90;;;;;;4916111;28;20494;-83
2021/12/11 00:48:42;;;;;;;30.00;15.80;;;-1.80;99.90;;;;;;4938820;28;20030;-85
2021/12/11 00:51:16;;;;;;;32.20;16.48;;;-1.80;99.90;;;;;;4905916;28;20109;-84
2021/12/11 00:53:52;;;;;;;32.47;15.07;;;-1.90;99.90;;;;;;4922775;28;20054;-84
2021/12/11 00:56:25;;;;;;;29.52;15.27;;;-2.00;99.90;;;;;;4922467;28;20140;-84
2021/12/11 00:58:55;;;;;;;30.75;15.90;;;-2.00;99.90;;;;;;4940291;28;20065;-84
2021/12/11 01:01:35;;;;;;;32.78;15.90;;;-2.10;99.90;;;;;;4940990;28;20043;-86
2021/12/11 01:04:03;;;;;;;38.25;16.30;;;-2.10;99.90;;;;;;4928660;28;20049;-85
2021/12/11 01:06:47;;;;;;;38.58;16.58;;;-2.10;99.90;;;;;;4928231;28;20474;-84
2021/12/11 01:09:18;;;;;;;47.60;18.67;;;-2.20;99.90;;;;;;4922975;28;20066;-86
2021/12/11 01:11:47;;;;;;;42.95;18.50;;;-2.10;99.90;;;;;;4938066;28;20042;-85
2021/12/11 01:14:31;;;;;;;44.47;19.63;;;-2.10;99.90;;;;;;4947887;28;20046;-84
2021/12/11 01:17:07;;;;;;;41.92;18.58;;;-2.10;99.90;;;;;;4924717;28;20962;-85
2021/12/11 01:19:38;;;;;;;40.67;18.48;;;-2.00;99.90;;;;;;4948271;28;20381;-84
2021/12/11 01:22:20;;;;;;;36.53;18.33;;;-2.10;99.90;;;;;;4920904;28;20082;-86
2021/12/11 01:24:51;;;;;;;35.80;18.83;;;-2.10;99.90;;;;;;4916339;28;20439;-84
2021/12/11 01:27:23;;;;;;;40.55;17.98;;;-2.10;99.90;;;;;;4951705;28;20038;-84
2021/12/11 01:29:55;;;;;;;34.47;18.00;;;-2.20;99.90;;;;;;4925678;28;20469;-84
2021/12/11 01:32:25;;;;;;;35.80;17.00;;;-2.10;99.90;;;;;;4923738;28;20058;-84
2021/12/11 01:34:52;;;;;;;32.25;17.73;;;-2.20;99.90;;;;;;4934818;28;20058;-83
2021/12/11 01:37:18;;;;;;;37.60;16.55;;;-2.20;99.90;;;;;;4892562;28;20035;-84
2021/12/11 01:39:46;;;;;;;37.58;17.85;;;-2.20;99.90;;;;;;4921797;28;20548;-84
2021/12/11 01:42:24;;;;;;;43.80;17.98;;;-2.20;99.90;;;;;;4930700;28;20122;-84
2021/12/11 01:44:51;;;;;;;46.00;20.10;;;-2.20;99.90;;;;;;4937640;28;20066;-84
2021/12/11 01:47:20;;;;;;;46.63;19.10;;;-2.30;99.90;;;;;;4908275;28;20035;-84
2021/12/11 01:49:52;;;;;;;43.13;18.63;;;-2.10;99.90;;;;;;4920096;28;20035;-84
2021/12/11 01:52:29;;;;;;;34.53;17.95;;;-2.10;99.90;;;;;;4937238;28;20039;-85
2021/12/11 01:54:56;;;;;;;41.17;18.40;;;-2.10;99.90;;;;;;4930669;28;20649;-84
2021/12/11 01:57:27;;;;;;;39.60;19.48;;;-2.20;99.90;;;;;;4907574;28;20046;-83
2021/12/11 02:00:12;;;;;;;31.13;17.17;;;-2.20;99.90;;;;;;4954463;28;20043;-84
2021/12/11 02:02:46;;;;;;;34.75;16.60;;;-2.20;99.90;;;;;;4919024;28;20042;-84
2021/12/11 02:05:18;;;;;;;43.40;19.25;;;-2.20;99.90;;;;;;4919746;28;20125;-83
2021/12/11 02:07:51;;;;;;;42.67;19.23;;;-2.20;99.90;;;;;;4919388;28;20034;-84
2021/12/11 02:10:39;;;;;;;36.70;17.98;;;-2.20;99.90;;;;;;4920056;28;20042;-84
2021/12/11 02:13:08;;;;;;;39.17;17.40;;;-2.20;99.90;;;;;;4924259;28;20053;-84
2021/12/11 02:15:42;;;;;;;39.72;18.17;;;-2.20;99.90;;;;;;4921942;28;20054;-84
2021/12/11 02:18:16;;;;;;;39.20;17.90;;;-2.30;99.90;;;;;;4918298;28;20042;-84
2021/12/11 02:20:49;;;;;;;37.55;18.15;;;-2.30;99.90;;;;;;4934449;28;20088;-84
2021/12/11 02:23:17;;;;;;;46.22;19.63;;;-2.30;99.90;;;;;;4934812;28;20513;-84
2021/12/11 02:25:47;;;;;;;39.30;18.25;;;-2.30;99.90;;;;;;4921419;28;20059;-84
2021/12/11 02:28:39;;;;;;;41.17;19.35;;;-2.30;99.90;;;;;;4940680;28;20375;-83
2021/12/11 02:31:28;;;;;;;36.33;17.80;;;-2.30;99.90;;;;;;4940112;28;20043;-84
2021/12/11 02:34:06;;;;;;;39.95;18.15;;;-2.30;99.90;;;;;;4936912;28;20039;-83
2021/12/11 02:36:43;;;;;;;34.47;17.55;;;-2.30;99.90;;;;;;4921684;28;20565;-84
2021/12/11 02:39:29;;;;;;;33.00;16.13;;;-2.30;99.90;;;;;;4923162;28;20053;-83
2021/12/11 02:42:09;;;;;;;28.13;14.93;;;-2.40;99.90;;;;;;4940159;28;20047;-84
2021/12/11 02:44:50;;;;;;;32.88;16.08;;;-2.40;99.90;;;;;;4939003;28;20101;-84
2021/12/11 02:47:34;;;;;;;35.33;16.58;;;-2.40;99.90;;;;;;4921889;28;20035;-84
2021/12/11 02:50:11;;;;;;;41.28;18.15;;;-2.40;99.90;;;;;;4920782;28;20078;-84
2021/12/11 02:52:43;;;;;;;37.72;18.08;;;-2.50;99.90;;;;;;4921012;28;20486;-84
2021/12/11 02:55:13;;;;;;;45.60;17.95;;;-2.50;99.90;;;;;;4925533;28;20121;-84
2021/12/11 02:57:55;;;;;;;43.38;19.00;;;-2.50;99.90;;;;;;4922676;28;20041;-83
2021/12/11 03:00:27;;;;;;;41.22;18.23;;;-2.50;99.90;;;;;;4937358;28;20410;-84
2021/12/11 03:03:03;;;;;;;35.55;17.13;;;-2.50;99.90;;;;;;4953753;28;20106;-84
2021/12/11 03:05:40;;;;;;;40.08;18.30;;;-2.50;99.90;;;;;;4956792;28;20118;-84
2021/12/11 03:08:09;;;;;;;48.38;19.05;;;-2.50;99.90;;;;;;4937524;28;20442;-84
2021/12/11 03:10:38;;;;;;;38.95;18.77;;;-2.50;99.90;;;;;;4918884;28;20055;-84
2021/12/11 03:13:04;;;;;;;35.75;16.95;;;-2.40;99.90;;;;;;4907666;28;20062;-83
2021/12/11 03:15:31;;;;;;;30.77;15.55;;;-2.50;99.90;;;;;;4907593;28;20061;-84
2021/12/11 03:17:57;;;;;;;32.35;15.68;;;-2.40;99.90;;;;;;4908638;28;20047;-83
2021/12/11 03:20:24;;;;;;;35.28;16.48;;;-2.50;99.90;;;;;;4924580;28;20090;-83
2021/12/11 03:22:50;;;;;;;31.98;16.55;;;-2.50;99.90;;;;;;4908494;28;20101;-83
2021/12/11 03:25:25;;;;;;;34.05;16.02;;;-2.50;99.90;;;;;;4925040;28;20035;-84
2021/12/11 03:27:51;;;;;;;30.92;15.48;;;-2.50;99.90;;;;;;4945539;28;20078;-83
2021/12/11 03:30:22;;;;;;;36.53;17.58;;;-2.60;99.90;;;;;;4927361;28;20878;-83
2021/12/11 03:32:55;;;;;;;39.90;15.82;;;-2.60;99.90;;;;;;4929007;28;20473;-83
2021/12/11 03:35:20;;;;;;;;;;;-2.60;99.90;;;;;;4930880;28;20392;-84
2021/12/11 03:37:47;;;;;;;30.63;14.88;;;-2.60;99.90;;;;;;4908627;28;20372;-84
2021/12/11 03:40:14;;;;;;;26.70;14.52;;;-2.60;99.90;;;;;;4899699;28;20196;-84
2021/12/11 03:42:42;;;;;;;33.08;16.48;;;-2.60;99.90;;;;;;4910344;28;20494;-84
2021/12/11 03:45:14;;;;;;;41.67;17.80;;;-2.70;99.90;;;;;;4925626;28;20046;-83
2021/12/11 03:47:44;;;;;;;42.73;18.20;;;-2.60;99.90;;;;;;4943670;28;20042;-84
2021/12/11 03:50:13;;;;;;;35.05;17.38;;;-2.70;99.90;;;;;;4920928;28;20051;-84
2021/12/11 03:52:42;;;;;;;42.30;18.85;;;-2.70;99.90;;;;;;4920511;28;20058;-84
2021/12/11 03:55:12;;;;;;;51.67;20.10;;;-2.60;99.90;;;;;;4928435;28;20109;-84
2021/12/11 03:57:38;;;;;;;43.80;19.80;;;-2.60;99.90;;;;;;4925057;28;20046;-83
2021/12/11 04:00:09;;;;;;;40.85;18.77;;;-2.60;99.90;;;;;;4909798;28;20054;-83
2021/12/11 04:02:36;;;;;;;38.80;17.80;;;-2.60;99.90;;;;;;4943793;28;20030;-83
2021/12/11 04:05:05;;;;;;;45.83;20.75;;;-2.60;99.90;;;;;;4925951;28;20039;-84
2021/12/11 04:07:41;;;;;;;57.42;23.95;;;-2.60;99.90;;;;;;4938687;28;20042;-83
2021/12/11 04:10:10;;;;;;;50.28;22.48;;;-2.60;99.90;;;;;;4957793;28;20117;-83
2021/12/11 04:12:37;;;;;;;47.90;22.92;;;-2.50;99.90;;;;;;4932001;28;20035;-83
2021/12/11 04:15:04;;;;;;;47.10;21.73;;;-2.60;99.90;;;;;;4921835;28;20500;-83
2021/12/11 04:17:30;;;;;;;53.05;22.92;;;-2.60;99.90;;;;;;4922213;28;20086;-83
2021/12/11 04:20:00;;;;;;;54.03;23.13;;;-2.60;99.90;;;;;;4922655;28;20518;-83
2021/12/11 04:22:26;;;;;;;59.45;23.58;;;-2.50;99.90;;;;;;4932813;28;20034;-83
2021/12/11 04:24:52;;;;;;;53.83;24.02;;;-2.50;99.90;;;;;;4939170;28;20035;-83
2021/12/11 04:27:21;;;;;;;52.05;21.55;;;-2.40;99.90;;;;;;4904626;28;20104;-83
2021/12/11 04:29:49;;;;;;;42.67;18.33;;;-2.40;99.90;;;;;;4952063;28;20035;-83
2021/12/11 04:32:16;;;;;;;44.60;19.50;;;-2.50;99.90;;;;;;4922994;28;20100;-83
2021/12/11 04:34:42;;;;;;;45.63;20.55;;;-2.50;99.90;;;;;;4938957;28;20109;-83
2021/12/11 04:37:17;;;;;;;56.35;22.70;;;-2.50;99.90;;;;;;4936762;28;20043;-83
2021/12/11 04:39:49;;;;;;;45.50;21.33;;;-2.50;99.90;;;;;;4920876;28;20042;-83
2021/12/11 04:43:05;;;;;;;46.25;20.42;;;-2.50;99.90;;;;;;4937670;28;20035;-83
2021/12/11 04:45:26;;;;;;;42.33;19.40;;;-2.50;99.90;;;;;;4935657;28;20426;-83
2021/12/11 04:47:59;;;;;;;37.83;17.10;;;-2.50;99.90;;;;;;4937407;28;20732;-83
2021/12/11 04:50:39;;;;;;;40.55;18.02;;;-2.50;99.90;;;;;;4921460;28;20109;-83
2021/12/11 04:53:18;;;;;;;38.22;17.88;;;-2.50;99.90;;;;;;4933925;28;20141;-83
2021/12/11 04:56:02;;;;;;;40.10;17.80;;;-2.60;99.90;;;;;;4939386;28;20421;-83
2021/12/11 05:04:35;;;;;;;56.75;23.60;;;-2.60;99.90;;;;;;4937103;28;20046;-83
2021/12/11 05:12:08;;;;;;;71.45;28.73;;;-2.50;99.90;;;;;;4933305;28;20141;-83
2021/12/11 05:14:34;;;;;;;66.47;26.40;;;-2.40;99.90;;;;;;4955270;28;20043;-83
2021/12/11 05:17:00;;;;;;;66.40;26.00;;;-2.40;99.90;;;;;;4902819;28;20194;-83
2021/12/11 05:19:26;;;;;;;57.95;24.65;;;-2.40;99.90;;;;;;4894123;28;20574;-83
2021/12/11 05:21:51;;;;;;;52.42;23.77;;;-2.30;99.90;;;;;;4920117;28;20047;-83
2021/12/11 05:24:18;;;;;;;54.53;22.38;;;-2.30;99.90;;;;;;4919753;28;20305;-83
2021/12/11 05:26:45;;;;;;;54.50;23.65;;;-2.30;99.90;;;;;;4921464;28;20137;-83
2021/12/11 05:29:11;;;;;;;60.72;24.80;;;-2.40;99.90;;;;;;4923663;28;20038;-83
2021/12/11 05:31:37;;;;;;;48.25;21.75;;;-2.30;99.90;;;;;;4934726;28;20053;-83
2021/12/11 05:34:04;;;;;;;51.63;22.70;;;-2.30;99.90;;;;;;4908049;28;20137;-83
2021/12/11 05:36:31;;;;;;;54.38;23.67;;;-2.40;99.90;;;;;;4923530;28;20153;-83
2021/12/11 05:38:59;;;;;;;58.90;25.00;;;-2.40;99.90;;;;;;4940058;28;21643;-83
2021/12/11 05:41:25;;;;;;;59.30;24.70;;;-2.40;99.90;;;;;;4921719;28;20047;-84
2021/12/11 05:43:54;;;;;;;54.00;23.48;;;-2.40;99.90;;;;;;4925011;28;20035;-83
2021/12/11 05:46:21;;;;;;;55.13;23.02;;;-2.40;99.90;;;;;;4935068;28;20145;-84
2021/12/11 05:48:49;;;;;;;52.03;23.98;;;-2.40;99.90;;;;;;4947791;28;20054;-84
2021/12/11 05:51:20;;;;;;;57.70;23.73;;;-2.40;99.90;;;;;;4919984;28;20148;-84
2021/12/11 05:53:46;;;;;;;70.18;27.05;;;-2.40;99.90;;;;;;4934790;28;20050;-83
2021/12/11 05:56:13;;;;;;;64.60;25.42;;;-2.40;99.90;;;;;;4893514;28;20082;-83
2021/12/11 06:01:24;;;;;;;67.25;27.33;;;-2.40;99.90;;;;;;4934716;28;20055;-84
2021/12/11 06:03:50;;;;;;;61.78;26.50;;;-2.30;99.90;;;;;;4936073;28;20320;-84
2021/12/11 06:06:16;;;;;;;59.53;25.73;;;-2.30;99.90;;;;;;4916255;28;20057;-83
2021/12/11 06:08:42;;;;;;;60.03;26.52;;;-2.40;99.90;;;;;;4933591;28;20118;-83
2021/12/11 06:11:11;;;;;;;68.68;27.38;;;-2.40;99.90;;;;;;4924831;28;20127;-83
2021/12/11 06:13:38;;;;;;;60.35;25.55;;;-2.40;99.90;;;;;;4939790;28;20101;-84
2021/12/11 06:16:05;;;;;;;60.80;26.58;;;-2.40;99.90;;;;;;4911641;28;20117;-84
2021/12/11 06:18:31;;;;;;;62.70;25.98;;;-2.40;99.90;;;;;;4926924;28;20512;-84
2021/12/11 06:20:57;;;;;;;62.33;25.02;;;-2.40;99.90;;;;;;4930340;28;20043;-84
2021/12/11 06:23:23;;;;;;;63.83;26.77;;;-2.40;99.90;;;;;;4899629;28;20043;-83
2021/12/11 06:25:50;;;;;;;65.55;27.35;;;-2.40;99.90;;;;;;4916814;28;20045;-83
2021/12/11 06:28:16;;;;;;;71.78;29.85;;;-2.40;99.90;;;;;;4947941;28;20035;-84
2021/12/11 06:30:42;;;;;;;60.45;25.45;;;-2.40;99.90;;;;;;4898973;28;20049;-84
2021/12/11 06:33:09;;;;;;;62.50;26.63;;;-2.40;99.90;;;;;;4933601;28;20130;-84
2021/12/11 06:35:50;;;;;;;66.80;26.55;;;-2.40;99.90;;;;;;4925128;28;20097;-84
2021/12/11 06:38:20;;;;;;;53.28;24.58;;;-2.50;99.90;;;;;;4928034;28;20035;-84
2021/12/11 06:40:46;;;;;;;57.72;24.75;;;-2.50;99.90;;;;;;4942115;28;20049;-84
2021/12/11 06:43:12;;;;;;;58.17;25.33;;;-2.50;99.90;;;;;;4912718;28;20297;-84
2021/12/11 06:45:39;;;;;;;58.20;24.20;;;-2.50;99.90;;;;;;4930551;28;20039;-84
2021/12/11 06:48:06;;;;;;;57.83;25.42;;;-2.60;99.90;;;;;;4946257;28;20038;-84
2021/12/11 06:50:32;;;;;;;60.42;25.35;;;-2.60;99.90;;;;;;4945749;28;20047;-84
2021/12/11 06:53:04;;;;;;;60.40;24.45;;;-2.60;99.90;;;;;;4945535;28;20045;-84
2021/12/11 06:55:30;;;;;;;64.85;25.40;;;-2.60;99.90;;;;;;4945270;28;20129;-84
2021/12/11 06:57:56;;;;;;;56.67;25.83;;;-2.60;99.90;;;;;;4928519;28;20433;-83
2021/12/11 07:00:22;;;;;;;56.15;24.20;;;-2.60;99.90;;;;;;4910343;28;20495;-85
2021/12/11 07:02:54;;;;;;;53.08;23.45;;;-2.60;99.90;;;;;;4909016;28;20035;-84
2021/12/11 07:05:20;;;;;;;54.85;24.10;;;-2.60;99.90;;;;;;4891136;28;20062;-84
2021/12/11 07:07:46;;;;;;;50.55;23.52;;;-2.60;99.90;;;;;;4952316;28;20126;-84
2021/12/11 07:10:15;;;;;;;49.42;22.27;;;-2.60;99.90;;;;;;4914275;28;20042;-84
2021/12/11 07:12:42;;;;;;;46.75;21.27;;;-2.70;99.90;;;;;;4923720;28;20046;-84
2021/12/11 07:15:10;;;;;;;49.70;22.38;;;-2.70;99.90;;;;;;4949262;28;20042;-84
2021/12/11 07:17:37;;;;;;;45.05;21.88;;;-2.80;99.90;;;;;;4933657;28;20043;-84
2021/12/11 07:20:06;;;;;;;53.58;23.23;;;-2.80;99.90;;;;;;4933087;28;20381;-83
2021/12/11 07:22:31;;;;;;;52.83;22.67;;;-2.80;99.90;;;;;;4925635;28;20065;-84
2021/12/11 07:25:10;;;;;;;47.88;22.67;;;-2.80;99.90;;;;;;4905852;28;20035;-84
2021/12/11 07:27:35;;;;;;;49.40;22.67;;;-2.80;99.90;;;;;;4939450;28;20046;-84
2021/12/11 07:30:02;;;;;;;50.05;22.42;;;-2.80;99.90;;;;;;4953956;28;20120;-83
2021/12/11 07:32:30;;;;;;;52.15;23.88;;;-2.80;99.90;;;;;;4938527;28;20049;-84
2021/12/11 07:34:56;;;;;;;54.95;22.83;;;-2.80;99.90;;;;;;4936513;28;20696;-83
2021/12/11 07:37:35;;;;;;;52.83;22.52;;;-2.90;99.90;;;;;;4903071;28;20046;-84
2021/12/11 07:40:26;;;;;;;51.00;22.48;;;-2.90;99.90;;;;;;4912784;28;21615;-84
2021/12/11 07:42:52;;;;;;;52.83;23.48;;;-2.80;99.90;;;;;;4911759;28;20417;-84
2021/12/11 07:45:19;;;;;;;50.47;24.15;;;-2.90;99.90;;;;;;4909695;28;20447;-84
2021/12/11 07:47:48;;;;;;;68.90;29.58;;;-2.90;99.90;;;;;;4921805;28;20043;-84
2021/12/11 07:50:14;;;;;;;78.85;35.35;;;-2.90;99.90;;;;;;4922594;28;20272;-84
2021/12/11 07:52:43;;;;;;;84.97;36.20;;;-2.80;99.90;;;;;;4935150;28;20043;-84
2021/12/11 07:55:10;;;;;;;76.30;33.63;;;-2.90;99.90;;;;;;4930080;28;20134;-83
2021/12/11 07:57:37;;;;;;;78.53;32.25;;;-2.80;99.90;;;;;;4944510;28;20041;-84
2021/12/11 08:00:10;;;;;;;72.85;30.55;;;-2.80;99.90;;;;;;4942634;28;20038;-84
2021/12/11 08:02:36;;;;;;;68.00;31.38;;;-2.70;99.90;;;;;;4919149;28;20053;-84
2021/12/11 08:05:04;;;;;;;72.10;29.60;;;-2.70;99.90;;;;;;4905601;28;20039;-84
2021/12/11 08:07:30;;;;;;;67.38;28.65;;;-2.70;99.90;;;;;;4948274;28;20275;-83
2021/12/11 08:09:56;;;;;;;59.67;27.65;;;-2.60;99.90;;;;;;4920058;28;20111;-83
2021/12/11 08:15:19;;;;;;;61.30;30.05;;;-2.60;99.90;;;;;;4943788;28;21754;-84
2021/12/11 08:17:53;;;;;;;66.57;29.20;;;-2.60;99.90;;;;;;4912178;28;20454;-84
2021/12/11 08:20:22;;;;;;;66.47;28.05;;;-2.50;99.90;;;;;;4918772;28;20050;-84
2021/12/11 08:22:51;;;;;;;63.00;29.55;;;-2.50;99.90;;;;;;4946056;28;20046;-84
2021/12/11 08:25:25;;;;;;;72.43;31.60;;;-2.50;99.90;;;;;;4930967;28;20135;-84
2021/12/11 08:27:51;;;;;;;81.47;34.83;;;-2.50;99.90;;;;;;4934042;28;20240;-85
2021/12/11 08:30:17;;;;;;;83.85;34.55;;;-2.40;99.90;;;;;;4916434;28;20134;-83
2021/12/11 08:32:43;;;;;;;83.40;32.92;;;-2.40;99.90;;;;;;4905872;28;20100;-84
2021/12/11 08:35:11;;;;;;;80.05;34.22;;;-2.30;99.90;;;;;;4918455;28;20046;-84
2021/12/11 08:37:40;;;;;;;77.35;33.72;;;-2.20;99.90;;;;;;4931081;28;20810;-84
2021/12/11 08:40:11;;;;;;;73.35;32.28;;;-2.20;99.90;;;;;;4933481;28;20910;-84
2021/12/11 08:42:43;;;;;;;71.30;31.70;;;-2.20;99.90;;;;;;4928221;28;20030;-84
2021/12/11 08:45:21;;;;;;;;;;;;;;;;;;;;;
2021/12/11 08:47:49;;;;;;;76.20;32.72;;;-2.10;99.90;;;;;;4914096;28;20558;-84
2021/12/11 08:50:20;;;;;;;83.00;35.30;;;-2.10;99.90;;;;;;4900466;28;20037;-84
2021/12/11 08:52:51;;;;;;;85.85;36.15;;;-2.00;99.90;;;;;;4928597;28;20034;-84
2021/12/11 08:55:27;;;;;;;85.85;35.47;;;-1.90;99.90;;;;;;4922034;28;20134;-84
2021/12/11 08:57:53;;;;;;;84.32;35.20;;;-1.90;99.90;;;;;;4917602;28;20046;-83
2021/12/11 09:00:39;;;;;;;91.28;36.72;;;-1.80;99.90;;;;;;4933996;28;21149;-84
2021/12/11 09:03:17;;;;;;;87.60;35.15;;;-1.70;99.90;;;;;;4932348;28;20454;-84
2021/12/11 09:05:48;;;;;;;75.97;35.35;;;-1.70;99.90;;;;;;4937515;28;20121;-83
2021/12/11 09:08:20;;;;;;;80.30;33.58;;;-1.70;99.90;;;;;;4932745;28;20057;-83
2021/12/11 09:11:18;;;;;;;79.32;33.78;;;-1.60;99.90;;;;;;4952725;28;20050;-84
2021/12/11 09:13:53;;;;;;;78.85;35.63;;;-1.60;99.90;;;;;;4906471;28;20392;-83
2021/12/11 09:16:27;;;;;;;80.60;34.67;;;-1.50;99.90;;;;;;4933806;28;20047;-85
2021/12/11 09:19:05;;;;;;;83.85;38.65;;;-1.50;99.90;;;;;;4951594;28;20114;-85
2021/12/11 09:21:47;;;;;;;87.95;39.25;;;-1.40;99.90;;;;;;4919850;28;20051;-84
2021/12/11 09:24:28;;;;;;;91.03;39.47;;;-1.40;99.90;;;;;;4923681;28;20082;-84
2021/12/11 09:27:07;;;;;;;95.30;40.97;;;-1.30;99.90;;;;;;4950791;28;21058;-83
2021/12/11 09:29:41;;;;;;;98.18;41.38;;;-1.20;99.90;;;;;;4934437;28;20027;-84
2021/12/11 09:32:22;;;;;;;97.13;43.28;;;-1.10;99.90;;;;;;4954278;28;20034;-83
2021/12/11 09:34:54;;;;;;;109.97;46.08;;;-1.00;99.90;;;;;;4929704;28;20058;-83
2021/12/11 09:37:21;;;;;;;123.32;49.30;;;-1.00;99.90;;;;;;4956230;28;20050;-85
2021/12/11 09:39:55;;;;;;;109.72;46.33;;;-0.90;99.90;;;;;;4927081;28;20046;-85
2021/12/11 09:42:21;;;;;;;117.07;46.97;;;-0.80;99.90;;;;;;4940154;28;20051;-85
2021/12/11 09:45:17;;;;;;;122.90;48.30;;;-0.70;99.90;;;;;;4942096;28;20035;-84
2021/12/11 09:47:51;;;;;;;127.22;50.60;;;-0.60;99.90;;;;;;4918170;28;20058;-84
2021/12/11 09:50:41;;;;;;;117.75;49.28;;;-0.50;99.90;;;;;;4944005;28;20053;-85
2021/12/11 09:53:07;;;;;;;124.88;52.42;;;-0.50;99.90;;;;;;4923100;28;20043;-85
2021/12/11 09:55:47;;;;;;;125.13;51.42;;;-0.40;99.90;;;;;;4913007;28;20047;-85
2021/12/11 09:58:17;;;;;;;143.98;53.50;;;-0.20;99.90;;;;;;4924127;28;20039;-87
2021/12/11 10:01:04;;;;;;;130.18;53.95;;;-0.20;99.90;;;;;;4950225;28;20046;-83
2021/12/11 10:03:47;;;;;;;127.95;50.92;;;-0.10;99.90;;;;;;4928098;28;20082;-84
2021/12/11 10:06:40;;;;;;;117.80;53.95;;;0.00;99.90;;;;;;4952374;28;20035;-83
2021/12/11 10:09:18;;;;;;;108.43;50.60;;;0.00;99.90;;;;;;4943370;28;20066;-81
2021/12/11 10:11:58;;;;;;;97.78;46.22;;;0.10;99.90;;;;;;4921807;28;20043;-84
2021/12/11 10:14:49;;;;;;;101.75;45.65;;;0.20;99.90;;;;;;4913558;28;20049;-85
2021/12/11 10:17:20;;;;;;;91.95;43.83;;;0.30;99.90;;;;;;4927188;28;20506;-82
2021/12/11 10:19:47;;;;;;;101.00;49.72;;;0.40;99.90;;;;;;4915216;28;20169;-85
2021/12/11 10:22:21;;;;;;;104.03;48.00;;;0.50;99.90;;;;;;4914789;28;20047;-82
2021/12/11 10:24:50;;;;;;;97.47;47.90;;;0.50;99.90;;;;;;4925821;28;21821;-83
2021/12/11 10:27:20;;;;;;;94.47;47.33;;;0.70;99.90;;;;;;4910749;28;20057;-82
2021/12/11 10:29:48;;;;;;;90.15;44.83;;;0.90;99.90;;;;;;4940497;28;20034;-82
2021/12/11 10:32:22;;;;;;;81.63;43.42;;;1.00;99.90;;;;;;4927947;28;20078;-81
2021/12/11 10:34:52;;;;;;;75.45;39.70;;;1.10;99.90;;;;;;4942747;28;20050;-82
2021/12/11 10:37:22;;;;;;;76.53;39.28;;;1.10;99.90;;;;;;4941323;28;20569;-82
2021/12/11 10:40:08;;;;;;;74.60;40.80;;;1.20;99.90;;;;;;4933372;28;20041;-81
2021/12/11 10:42:35;;;;;;;78.40;39.85;;;1.20;99.90;;;;;;4934472;28;20328;-82
2021/12/11 10:45:02;;;;;;;77.55;42.67;;;1.30;99.90;;;;;;4947408;28;20039;-83
2021/12/11 10:47:38;;;;;;;78.32;44.45;;;1.30;99.90;;;;;;4953868;28;20039;-82
2021/12/11 10:50:09;;;;;;;91.78;45.90;;;1.30;99.90;;;;;;4953510;28;20584;-83
2021/12/11 10:52:36;;;;;;;83.30;41.97;;;1.40;99.90;;;;;;4918864;28;20039;-81
2021/12/11 10:55:06;;;;;;;70.55;38.08;;;1.50;99.90;;;;;;4925366;28;20039;-82
2021/12/11 10:57:33;;;;;;;63.97;36.85;;;1.60;99.90;;;;;;4953849;28;20518;-82
2021/12/11 11:00:00;;;;;;;72.75;39.70;;;1.60;99.90;;;;;;4928325;28;20058;-82
2021/12/11 11:02:32;;;;;;;67.05;38.20;;;1.60;99.90;;;;;;4913336;28;20184;-83
2021/12/11 11:05:07;;;;;;;83.90;41.43;;;1.70;99.90;;;;;;4930988;28;20049;-83
2021/12/11 11:07:33;;;;;;;74.03;40.08;;;1.80;99.90;;;;;;4921122;28;20498;-82
2021/12/11 11:10:02;;;;;;;79.43;41.15;;;1.90;99.90;;;;;;4909483;28;20102;-83
2021/12/11 11:12:35;;;;;;;75.03;39.95;;;2.00;99.90;;;;;;4934070;28;20046;-83
2021/12/11 11:15:23;;;;;;;66.85;38.20;;;2.10;99.90;;;;;;4928630;28;20054;-83
2021/12/11 11:17:53;;;;;;;76.78;40.10;;;2.20;99.90;;;;;;4915556;28;20491;-82
2021/12/11 11:20:32;;;;;;;69.07;37.10;;;2.30;99.90;;;;;;4921466;28;20039;-84
2021/12/11 11:23:04;;;;;;;73.97;38.72;;;2.30;99.90;;;;;;4922378;28;20047;-83
2021/12/11 11:25:35;;;;;;;71.97;39.05;;;2.40;99.90;;;;;;4945796;28;20077;-83
2021/12/11 11:28:08;;;;;;;68.45;37.40;;;2.50;99.90;;;;;;4937315;28;20106;-84
2021/12/11 11:30:38;;;;;;;61.65;34.85;;;2.50;99.90;;;;;;4949010;28;20053;-83
2021/12/11 11:33:07;;;;;;;63.22;35.30;;;2.60;99.90;;;;;;4921649;28;20054;-82
2021/12/11 11:35:38;;;;;;;69.45;36.28;;;2.70;99.90;;;;;;4927085;28;20079;-83
2021/12/11 11:38:06;;;;;;;64.35;35.00;;;2.70;99.90;;;;;;4931393;28;20245;-84
2021/12/11 11:40:37;;;;;;;66.55;36.72;;;2.90;99.90;;;;;;4926282;28;20126;-84
2021/12/11 11:43:05;;;;;;;64.20;35.38;;;3.10;99.90;;;;;;4929682;28;20036;-83
2021/12/11 11:45:35;;;;;;;60.72;34.25;;;3.40;99.90;;;;;;4920655;28;20491;-83
2021/12/11 11:48:25;;;;;;;55.10;33.83;;;3.50;99.90;;;;;;4966549;28;20042;-83
2021/12/11 11:50:55;;;;;;;57.13;29.48;;;3.60;99.90;;;;;;5058425;23;20038;-84
2021/12/11 11:53:24;;;;;;;50.58;30.60;;;3.70;99.90;;;;;;4928374;29;20054;-87
2021/12/11 11:55:58;;;;;;;54.17;31.20;;;3.70;99.90;;;;;;4912233;28;20043;-84
2021/12/11 11:58:39;;;;;;;56.70;31.77;;;3.70;99.90;;;;;;4943167;28;20126;-83
2021/12/11 12:01:29;;;;;;;53.03;29.73;;;3.70;99.90;;;;;;4910951;28;20047;-84
2021/12/11 12:03:58;;;;;;;58.17;31.80;;;3.70;99.90;;;;;;4934030;28;20043;-83
2021/12/11 12:06:32;;;;;;;57.78;33.25;;;3.70;99.90;;;;;;4914992;28;20066;-83
2021/12/11 12:08:59;;;;;;;58.92;32.40;;;3.70;99.90;;;;;;4939504;28;20043;-83
2021/12/11 12:11:31;;;;;;;53.30;31.63;;;3.80;99.90;;;;;;4932396;28;20402;-84
2021/12/11 12:14:04;;;;;;;54.97;31.42;;;3.90;99.90;;;;;;4926355;29;21837;-86
2021/12/11 12:16:35;;;;;;;60.85;33.03;;;3.90;99.90;;;;;;4941788;28;20055;-83
2021/12/11 12:19:03;;;;;;;53.60;31.40;;;4.00;99.90;;;;;;4930025;29;20637;-87
2021/12/11 12:21:31;;;;;;;54.13;30.95;;;4.20;99.90;;;;;;4918259;29;20038;-84
2021/12/11 12:23:57;;;;;;;56.35;32.58;;;4.30;99.90;;;;;;4931602;29;20081;-83
2021/12/11 12:26:26;;;;;;;52.33;30.02;;;4.40;99.90;;;;;;4904309;29;20054;-84
2021/12/11 12:28:57;;;;;;;50.30;29.70;;;4.50;99.90;;;;;;4949391;28;20039;-86
2021/12/11 12:31:32;;;;;;;52.83;29.48;;;4.70;99.90;;;;;;4927148;29;20035;-84
2021/12/11 12:34:00;;;;;;;48.65;30.08;;;4.90;99.90;;;;;;4927958;28;20035;-84
2021/12/11 12:36:32;;;;;;;47.58;28.10;;;5.40;99.90;;;;;;4902383;28;20046;-84
2021/12/11 12:39:02;;;;;;;46.75;27.08;;;5.90;99.90;;;;;;4915995;29;20074;-83
2021/12/11 12:42:04;;;;;;;45.55;28.45;;;5.90;99.90;;;;;;4916194;29;20086;-83
2021/12/11 12:44:32;;;;;;;49.78;28.65;;;5.80;99.90;;;;;;4922084;29;20051;-84
2021/12/11 12:47:17;;;;;;;47.90;27.70;;;5.40;99.90;;;;;;4910903;29;20140;-83
2021/12/11 12:49:47;;;;;;;52.67;30.27;;;5.10;99.90;;;;;;4912454;29;20039;-83
2021/12/11 12:53:18;;;;;;;51.50;30.20;;;5.00;99.90;;;;;;4910728;28;20039;-84
2021/12/11 12:55:29;;;;;;;51.92;29.15;;;4.90;99.90;;;;;;4918027;29;20144;-83
2021/12/11 12:58:12;;;;;;;51.45;28.13;;;4.70;99.90;;;;;;4914627;29;20043;-82
2021/12/11 13:00:51;;;;;;;44.55;27.65;;;4.70;99.90;;;;;;4918097;29;20622;-84
2021/12/11 13:03:24;;;;;;;49.33;28.35;;;4.60;99.90;;;;;;4941062;28;20040;-83
2021/12/11 13:06:04;;;;;;;54.10;29.50;;;4.50;99.90;;;;;;4948772;28;20062;-83
2021/12/11 13:08:38;;;;;;;54.55;29.05;;;4.50;99.90;;;;;;4927566;29;20585;-83
2021/12/11 13:11:12;;;;;;;54.40;29.00;;;4.40;99.90;;;;;;4917081;29;20043;-84